Time;durP1;ratioP1;P1;durP2;ratioP2;P2;SDS_P1;SDS_P2;PMS_P1;PMS_P2;Temp;Humidity;BMP_temperature;BMP_pressure;BME280_temperature;BME280_humidity;BME280_pressure;Samples;Min_cycle;Max_cycle;Signal;HPM_P1;HPM_P2
2022/07/24 00:01:49;;;;;;;10.70;9.68;;;21.80;99.90;;;;;;4934663;29;20273;-33
2022/07/24 00:04:14;;;;;;;11.13;9.98;;;21.70;99.90;;;;;;4934653;29;20174;-33
2022/07/24 00:06:40;;;;;;;11.40;10.30;;;21.70;99.90;;;;;;4966702;28;20193;-34
2022/07/24 00:09:06;;;;;;;10.65;9.75;;;21.70;99.90;;;;;;4950878;28;20182;-34
2022/07/24 00:11:32;;;;;;;10.93;10.02;;;21.60;99.90;;;;;;4934582;29;20680;-34
2022/07/24 00:13:58;;;;;;;11.68;10.55;;;21.50;99.90;;;;;;4918603;29;20192;-34
2022/07/24 00:16:24;;;;;;;12.88;10.73;;;21.40;99.90;;;;;;4934719;29;20174;-34
2022/07/24 00:18:50;;;;;;;11.93;10.90;;;21.40;99.90;;;;;;4934583;29;20213;-33
2022/07/24 00:21:16;;;;;;;11.63;10.52;;;21.30;99.90;;;;;;4950238;28;20237;-34
2022/07/24 00:23:43;;;;;;;12.07;10.88;;;21.30;99.90;;;;;;4934320;29;20240;-34
2022/07/24 00:26:10;;;;;;;12.57;10.80;;;21.40;99.90;;;;;;4934150;29;20293;-33
2022/07/24 00:28:36;;;;;;;11.35;10.35;;;21.40;99.90;;;;;;4950357;28;20182;-34
2022/07/24 00:31:06;;;;;;;12.20;11.00;;;21.50;99.90;;;;;;4966397;28;20216;-34
2022/07/24 00:33:32;;;;;;;10.05;9.15;;;21.50;99.90;;;;;;4934207;29;20186;-35
2022/07/24 00:35:57;;;;;;;12.02;9.88;;;21.40;99.90;;;;;;4933218;29;20189;-36
2022/07/24 00:38:23;;;;;;;11.85;10.75;;;21.40;99.90;;;;;;4935489;29;20185;-33
2022/07/24 00:40:49;;;;;;;11.25;10.25;;;21.40;99.90;;;;;;4934203;29;20210;-33
2022/07/24 00:43:16;;;;;;;11.52;10.32;;;21.40;99.90;;;;;;4959191;28;20187;-33
2022/07/24 00:45:43;;;;;;;11.98;10.77;;;21.40;99.90;;;;;;4953298;29;20186;-34
2022/07/24 00:48:10;;;;;;;11.88;10.55;;;21.40;99.90;;;;;;4953080;29;20182;-34
2022/07/24 00:50:36;;;;;;;11.40;10.30;;;21.30;99.90;;;;;;4936894;29;20185;-33
2022/07/24 00:53:03;;;;;;;12.30;11.10;;;21.20;99.90;;;;;;4969221;28;20205;-34
2022/07/24 00:55:29;;;;;;;10.98;9.90;;;21.20;99.90;;;;;;4969170;28;20192;-34
2022/07/24 00:57:56;;;;;;;11.27;10.18;;;21.10;99.90;;;;;;4952875;28;20184;-34
2022/07/24 01:00:22;;;;;;;11.30;10.13;;;21.10;99.90;;;;;;4936937;29;20304;-33
2022/07/24 01:02:49;;;;;;;12.10;10.80;;;21.10;99.90;;;;;;4936766;29;20264;-34
2022/07/24 01:05:16;;;;;;;11.05;10.05;;;21.10;99.90;;;;;;4952402;28;20275;-33
2022/07/24 01:07:42;;;;;;;12.07;10.88;;;21.10;99.90;;;;;;4936799;29;20257;-34
2022/07/24 01:10:09;;;;;;;12.07;10.88;;;21.10;99.90;;;;;;4952721;28;20280;-33
2022/07/24 01:12:36;;;;;;;12.57;11.40;;;21.00;99.90;;;;;;4936777;29;20297;-34
2022/07/24 01:15:05;;;;;;;11.88;10.70;;;20.90;99.90;;;;;;4952376;29;20221;-34
2022/07/24 01:17:32;;;;;;;12.13;11.02;;;20.80;99.90;;;;;;4952450;28;20186;-33
2022/07/24 01:20:01;;;;;;;12.77;11.57;;;20.80;99.90;;;;;;4952581;29;20216;-34
2022/07/24 01:22:27;;;;;;;12.02;10.88;;;20.80;99.90;;;;;;4952492;28;20259;-36
2022/07/24 01:24:54;;;;;;;12.02;10.93;;;20.80;99.90;;;;;;4952238;28;20185;-33
2022/07/24 01:27:23;;;;;;;10.95;10.02;;;20.70;99.90;;;;;;4952400;28;20222;-33
2022/07/24 01:29:49;;;;;;;12.57;11.35;;;20.60;99.90;;;;;;4968411;28;20213;-33
2022/07/24 01:32:15;;;;;;;12.13;10.93;;;20.60;99.90;;;;;;4936027;29;20221;-34
2022/07/24 01:34:41;;;;;;;11.73;10.63;;;20.50;99.90;;;;;;4952013;29;20216;-34
2022/07/24 01:37:07;;;;;;;12.15;11.02;;;20.40;99.90;;;;;;4968334;28;20182;-33
2022/07/24 01:39:33;;;;;;;11.68;10.05;;;20.40;99.90;;;;;;4952261;29;20196;-33
2022/07/24 01:41:58;;;;;;;13.77;11.20;;;20.40;99.90;;;;;;4951909;28;20209;-34
2022/07/24 01:44:25;;;;;;;12.80;11.55;;;20.40;99.90;;;;;;4936056;29;20217;-34
2022/07/24 01:46:51;;;;;;;11.82;10.82;;;20.40;99.90;;;;;;4967434;28;20202;-34
2022/07/24 01:49:17;;;;;;;11.70;10.60;;;20.50;99.90;;;;;;4967953;28;20209;-33
2022/07/24 01:51:42;;;;;;;11.93;10.60;;;20.40;99.90;;;;;;4968133;28;20252;-33
2022/07/24 01:54:08;;;;;;;11.77;10.65;;;20.50;99.90;;;;;;4935958;29;20177;-33
2022/07/24 01:56:34;;;;;;;11.68;10.48;;;20.60;99.90;;;;;;4936135;29;20213;-35
2022/07/24 01:59:00;;;;;;;12.32;11.25;;;20.60;99.90;;;;;;4951886;29;20185;-33
2022/07/24 02:01:29;;;;;;;12.45;10.60;;;20.60;99.90;;;;;;4951584;28;20241;-34
2022/07/24 02:03:57;;;;;;;10.93;9.93;;;20.60;99.90;;;;;;4951666;28;20177;-33
2022/07/24 02:06:23;;;;;;;12.15;11.05;;;20.70;99.90;;;;;;4968127;28;20173;-33
2022/07/24 02:08:49;;;;;;;12.93;10.70;;;20.70;99.90;;;;;;4951762;28;20236;-34
2022/07/24 02:11:14;;;;;;;11.88;10.68;;;20.70;99.90;;;;;;4935732;29;20224;-33
2022/07/24 02:13:40;;;;;;;13.27;10.80;;;20.60;99.90;;;;;;4935563;29;20228;-34
2022/07/24 02:16:09;;;;;;;11.50;10.30;;;20.70;99.90;;;;;;4935621;29;20212;-33
2022/07/24 02:18:35;;;;;;;11.15;10.15;;;20.70;99.90;;;;;;4951737;29;20204;-33
2022/07/24 02:21:01;;;;;;;12.23;10.90;;;20.70;99.90;;;;;;4951841;28;20280;-34
2022/07/24 02:23:27;;;;;;;11.57;10.48;;;20.60;99.90;;;;;;4951555;28;20284;-34
2022/07/24 02:25:53;;;;;;;11.85;10.68;;;20.60;99.90;;;;;;4967565;28;20181;-34
2022/07/24 02:28:19;;;;;;;12.57;11.48;;;20.50;99.90;;;;;;4935849;29;20184;-34
2022/07/24 02:30:45;;;;;;;12.57;11.27;;;20.40;99.90;;;;;;4951451;28;20208;-33
2022/07/24 02:33:14;;;;;;;11.80;10.70;;;20.40;99.90;;;;;;4935246;29;20245;-34
2022/07/24 02:35:40;;;;;;;12.10;11.00;;;20.20;99.90;;;;;;4951481;29;20181;-34
2022/07/24 02:38:06;;;;;;;12.68;11.48;;;20.00;99.90;;;;;;4935192;29;20189;-34
2022/07/24 02:40:32;;;;;;;12.15;11.00;;;20.00;99.90;;;;;;4951586;29;20186;-34
2022/07/24 02:42:59;;;;;;;12.20;11.10;;;19.90;99.90;;;;;;4950765;28;20304;-34
2022/07/24 02:45:26;;;;;;;12.57;11.48;;;19.80;99.90;;;;;;4952650;28;20236;-34
2022/07/24 02:47:54;;;;;;;12.65;11.45;;;19.80;99.90;;;;;;4951652;28;20181;-34
2022/07/24 02:50:23;;;;;;;11.77;10.70;;;19.70;99.90;;;;;;4951442;29;20209;-35
2022/07/24 02:52:49;;;;;;;13.25;12.02;;;19.70;99.90;;;;;;4951490;28;20197;-37
2022/07/24 02:55:15;;;;;;;12.80;11.70;;;19.70;99.90;;;;;;4951342;29;20177;-34
2022/07/24 02:57:41;;;;;;;11.80;10.80;;;19.70;99.90;;;;;;4935219;29;20240;-33
2022/07/24 03:00:10;;;;;;;12.40;11.20;;;19.70;99.90;;;;;;4938403;29;20216;-34
2022/07/24 03:02:37;;;;;;;13.57;12.27;;;19.70;99.90;;;;;;4955538;28;20216;-34
2022/07/24 03:05:04;;;;;;;12.43;11.32;;;19.70;99.90;;;;;;4974000;28;20187;-34
2022/07/24 03:07:30;;;;;;;12.57;11.27;;;19.70;99.90;;;;;;4957030;28;20207;-34
2022/07/24 03:09:57;;;;;;;12.40;11.30;;;19.70;99.90;;;;;;4939126;28;20284;-33
2022/07/24 03:12:23;;;;;;;16.33;11.30;;;19.70;99.90;;;;;;4939030;28;20678;-34
2022/07/24 03:14:49;;;;;;;12.77;11.48;;;19.70;99.90;;;;;;4955819;28;20185;-34
2022/07/24 03:17:15;;;;;;;12.13;10.90;;;19.60;99.90;;;;;;4955117;29;20244;-33
2022/07/24 03:19:41;;;;;;;13.10;11.80;;;19.60;99.90;;;;;;4970943;28;20189;-33
2022/07/24 03:22:07;;;;;;;13.10;11.10;;;19.60;99.90;;;;;;4970854;28;20677;-34
2022/07/24 03:24:33;;;;;;;14.18;11.73;;;19.50;99.90;;;;;;4985973;28;20279;-33
2022/07/24 03:26:59;;;;;;;12.63;11.38;;;19.40;99.90;;;;;;4973792;28;20215;-33
2022/07/24 03:29:25;;;;;;;13.45;12.05;;;19.30;99.90;;;;;;4943145;28;20461;-33
2022/07/24 03:31:51;;;;;;;12.90;11.60;;;19.30;99.90;;;;;;4938461;29;20213;-33
2022/07/24 03:34:16;;;;;;;12.18;11.07;;;19.30;99.90;;;;;;4950853;28;20227;-34
2022/07/24 03:36:42;;;;;;;13.52;12.07;;;19.40;99.90;;;;;;4973732;28;20181;-34
2022/07/24 03:39:08;;;;;;;12.27;11.07;;;19.30;99.90;;;;;;4938475;28;20217;-36
2022/07/24 03:41:34;;;;;;;12.65;11.40;;;19.30;99.90;;;;;;4938442;29;20209;-33
2022/07/24 03:44:00;;;;;;;13.20;11.95;;;19.30;99.90;;;;;;4969678;28;20197;-33
2022/07/24 03:46:28;;;;;;;14.38;11.93;;;19.20;99.90;;;;;;4954425;29;20205;-33
2022/07/24 03:48:54;;;;;;;13.73;12.32;;;19.20;99.90;;;;;;4969818;28;20181;-34
2022/07/24 03:51:21;;;;;;;13.43;11.98;;;19.10;99.90;;;;;;4957353;28;20215;-34
2022/07/24 03:53:47;;;;;;;13.40;12.00;;;19.00;99.90;;;;;;4958529;28;20181;-33
2022/07/24 03:56:13;;;;;;;14.23;12.77;;;18.90;99.90;;;;;;4955287;29;20209;-33
2022/07/24 03:58:39;;;;;;;13.95;12.65;;;18.80;99.90;;;;;;4938289;28;20216;-34
2022/07/24 04:01:05;;;;;;;13.43;12.20;;;18.80;99.90;;;;;;4952843;28;20307;-36
2022/07/24 04:03:31;;;;;;;13.82;12.52;;;18.70;99.90;;;;;;4954105;28;20198;-34
2022/07/24 04:05:56;;;;;;;14.27;12.77;;;18.70;99.90;;;;;;4953684;29;20205;-35
2022/07/24 04:08:22;;;;;;;14.23;12.93;;;18.70;99.90;;;;;;4943401;28;20185;-34
2022/07/24 04:10:48;;;;;;;14.50;12.93;;;18.60;99.90;;;;;;4939690;29;20307;-34
2022/07/24 04:13:14;;;;;;;16.27;13.50;;;18.70;99.90;;;;;;4953984;28;20268;-33
2022/07/24 04:15:40;;;;;;;13.55;12.35;;;18.60;99.90;;;;;;4937653;29;20192;-33
2022/07/24 04:18:05;;;;;;;13.30;12.02;;;18.70;99.90;;;;;;4953671;29;20181;-33
2022/07/24 04:20:31;;;;;;;13.48;12.07;;;18.70;99.90;;;;;;4958542;28;20188;-33
2022/07/24 04:22:57;;;;;;;13.05;11.75;;;18.70;99.90;;;;;;4956619;28;20205;-34
2022/07/24 04:25:23;;;;;;;13.20;11.90;;;18.80;99.90;;;;;;4968606;28;20177;-34
2022/07/24 04:27:49;;;;;;;13.10;11.80;;;18.80;99.90;;;;;;4969430;28;20287;-33
2022/07/24 04:30:14;;;;;;;13.50;12.18;;;18.90;99.90;;;;;;4953540;28;20208;-33
2022/07/24 04:32:40;;;;;;;14.02;12.73;;;18.90;99.90;;;;;;4953313;28;20221;-34
2022/07/24 04:35:07;;;;;;;13.13;11.80;;;19.00;99.90;;;;;;4960397;28;20183;-35
2022/07/24 04:37:32;;;;;;;13.38;12.02;;;19.00;99.90;;;;;;4956246;28;20215;-34
2022/07/24 04:39:58;;;;;;;13.07;11.95;;;19.00;99.90;;;;;;4947294;28;20193;-33
2022/07/24 04:42:24;;;;;;;13.10;11.90;;;19.00;99.90;;;;;;4937050;29;20209;-33
2022/07/24 04:44:50;;;;;;;13.07;11.80;;;19.00;99.90;;;;;;4975972;28;20192;-34
2022/07/24 04:47:16;;;;;;;13.50;12.25;;;19.10;99.90;;;;;;4972665;28;20295;-34
2022/07/24 04:49:42;;;;;;;13.80;11.80;;;19.10;99.90;;;;;;4966436;28;20235;-34
2022/07/24 04:52:07;;;;;;;12.90;11.63;;;19.10;99.90;;;;;;4968714;28;20229;-34
2022/07/24 04:54:33;;;;;;;12.38;11.18;;;19.10;99.90;;;;;;4968536;28;20181;-33
2022/07/24 04:56:59;;;;;;;12.70;11.32;;;19.10;99.90;;;;;;4969027;28;20180;-33
2022/07/24 04:59:25;;;;;;;13.05;11.75;;;19.20;99.90;;;;;;4938903;28;20272;-33
2022/07/24 05:01:50;;;;;;;13.32;12.07;;;19.20;99.90;;;;;;4955871;28;20440;-33
2022/07/24 05:04:16;;;;;;;13.27;11.98;;;19.20;99.90;;;;;;4954930;28;20309;-34
2022/07/24 05:06:42;;;;;;;12.93;11.70;;;19.30;99.90;;;;;;4936530;28;20184;-35
2022/07/24 05:09:08;;;;;;;13.75;12.35;;;19.40;99.90;;;;;;4936580;29;20216;-34
2022/07/24 05:11:34;;;;;;;12.95;11.65;;;19.50;99.90;;;;;;4968447;28;20211;-35
2022/07/24 05:14:00;;;;;;;12.88;11.60;;;19.50;99.90;;;;;;4968227;28;20178;-34
2022/07/24 05:16:25;;;;;;;12.65;11.45;;;19.60;99.90;;;;;;4952653;28;20264;-33
2022/07/24 05:18:51;;;;;;;12.55;11.32;;;19.60;99.90;;;;;;4939720;28;20195;-34
2022/07/24 05:21:17;;;;;;;13.23;11.95;;;19.60;99.90;;;;;;4955230;28;20201;-34
2022/07/24 05:23:43;;;;;;;13.98;12.60;;;19.60;99.90;;;;;;4969370;28;20189;-34
2022/07/24 05:26:09;;;;;;;13.63;12.43;;;19.80;99.90;;;;;;4936248;29;20190;-34
2022/07/24 05:28:35;;;;;;;12.98;11.70;;;19.80;99.90;;;;;;4954205;28;20204;-35
2022/07/24 05:31:01;;;;;;;13.57;12.35;;;19.90;99.90;;;;;;4971730;28;20244;-34
2022/07/24 05:33:26;;;;;;;13.13;11.73;;;20.00;99.90;;;;;;4971429;28;20285;-35
2022/07/24 05:35:52;;;;;;;13.77;12.52;;;20.10;99.90;;;;;;4952372;28;20180;-34
2022/07/24 05:38:18;;;;;;;12.95;11.68;;;20.20;99.90;;;;;;4968330;28;20209;-35
2022/07/24 05:40:44;;;;;;;12.77;11.57;;;20.30;99.90;;;;;;4968718;28;20184;-33
2022/07/24 05:43:10;;;;;;;12.38;11.27;;;20.40;99.90;;;;;;4946938;28;20197;-36
2022/07/24 05:45:35;;;;;;;12.48;11.38;;;20.50;99.90;;;;;;4967733;28;20666;-34
2022/07/24 05:48:02;;;;;;;13.18;11.88;;;20.50;99.90;;;;;;4967885;28;20225;-35
2022/07/24 05:50:28;;;;;;;12.60;11.40;;;20.60;99.90;;;;;;4967220;28;20209;-35
2022/07/24 05:52:55;;;;;;;12.73;11.52;;;20.50;99.90;;;;;;4936086;28;20221;-34
2022/07/24 05:55:21;;;;;;;13.18;11.88;;;20.50;99.90;;;;;;4936117;29;20338;-34
2022/07/24 05:57:47;;;;;;;13.85;12.38;;;20.60;99.90;;;;;;4936074;29;20188;-34
2022/07/24 06:00:14;;;;;;;12.27;11.15;;;20.60;99.90;;;;;;4936085;29;20331;-35
2022/07/24 06:02:40;;;;;;;12.60;11.30;;;20.60;99.90;;;;;;4951636;28;20228;-35
2022/07/24 06:05:07;;;;;;;13.43;12.23;;;20.70;99.90;;;;;;4968132;28;20188;-33
2022/07/24 06:07:32;;;;;;;12.55;11.35;;;20.70;99.90;;;;;;4955064;28;20216;-34
2022/07/24 06:09:58;;;;;;;12.75;11.55;;;20.80;99.90;;;;;;4955298;28;20229;-34
2022/07/24 06:12:24;;;;;;;12.57;11.48;;;20.80;99.90;;;;;;4951887;28;20205;-35
2022/07/24 06:14:50;;;;;;;12.35;11.15;;;20.80;99.90;;;;;;4949159;28;20208;-34
2022/07/24 06:17:15;;;;;;;13.07;11.88;;;20.90;99.90;;;;;;4972251;28;20169;-37
2022/07/24 06:19:41;;;;;;;12.98;11.70;;;21.00;99.90;;;;;;4936027;28;20193;-36
2022/07/24 06:22:07;;;;;;;12.15;11.05;;;21.10;99.90;;;;;;4969971;28;20231;-34
2022/07/24 06:24:33;;;;;;;12.23;11.02;;;21.30;99.90;;;;;;4934294;28;20200;-34
2022/07/24 06:26:59;;;;;;;11.93;10.82;;;21.40;99.90;;;;;;4949612;28;20232;-35
2022/07/24 06:29:24;;;;;;;11.85;10.73;;;21.60;99.90;;;;;;4951194;29;20212;-34
2022/07/24 06:31:50;;;;;;;11.52;10.40;;;21.60;99.90;;;;;;4961540;28;20189;-35
2022/07/24 06:34:16;;;;;;;11.55;10.45;;;21.80;99.90;;;;;;4941682;29;20182;-37
2022/07/24 06:36:42;;;;;;;12.13;10.93;;;22.00;99.90;;;;;;4954275;28;20276;-37
2022/07/24 06:39:08;;;;;;;12.57;11.45;;;22.00;99.90;;;;;;4954910;28;20264;-35
2022/07/24 06:41:35;;;;;;;11.60;10.45;;;22.20;99.90;;;;;;4953942;29;20296;-35
2022/07/24 06:44:07;;;;;;;10.75;9.75;;;22.20;99.90;;;;;;4938856;28;20185;-35
2022/07/24 06:46:37;;;;;;;12.23;11.13;;;22.30;99.90;;;;;;4953908;29;20232;-35
2022/07/24 06:49:03;;;;;;;11.82;10.73;;;22.40;99.90;;;;;;4968518;28;20180;-34
2022/07/24 06:51:30;;;;;;;12.18;10.98;;;22.50;99.90;;;;;;4948452;28;20216;-34
2022/07/24 06:53:56;;;;;;;12.15;11.02;;;22.70;99.90;;;;;;4954444;29;20185;-35
2022/07/24 06:56:22;;;;;;;12.15;11.05;;;22.90;99.90;;;;;;4965096;28;20181;-35
2022/07/24 06:58:48;;;;;;;11.43;10.32;;;23.00;99.90;;;;;;4954462;28;20185;-35
2022/07/24 07:01:15;;;;;;;11.60;10.30;;;23.20;99.90;;;;;;4961735;28;20227;-35
2022/07/24 07:03:42;;;;;;;11.25;10.15;;;23.20;99.90;;;;;;4952917;29;20593;-35
2022/07/24 07:06:09;;;;;;;11.23;10.23;;;23.40;99.90;;;;;;4954135;28;20190;-35
2022/07/24 07:08:34;;;;;;;11.77;10.68;;;23.50;99.90;;;;;;4954584;29;20188;-34
2022/07/24 07:11:00;;;;;;;11.30;10.30;;;23.60;99.90;;;;;;4969950;28;20228;-34
2022/07/24 07:13:26;;;;;;;11.30;10.10;;;23.60;99.90;;;;;;4954578;29;20196;-37
2022/07/24 07:15:53;;;;;;;11.18;10.07;;;23.80;99.90;;;;;;4952714;28;20201;-35
2022/07/24 07:18:19;;;;;;;10.77;9.77;;;23.80;99.90;;;;;;4957802;28;20217;-35
2022/07/24 07:20:46;;;;;;;10.20;9.30;;;23.90;99.90;;;;;;4955804;28;20181;-35
2022/07/24 07:23:14;;;;;;;11.90;10.77;;;23.90;99.90;;;;;;4939683;29;20189;-35
2022/07/24 07:25:40;;;;;;;11.38;10.27;;;24.00;99.90;;;;;;4955769;28;20185;-36
2022/07/24 07:28:08;;;;;;;10.35;9.30;;;24.20;99.90;;;;;;4962695;28;20188;-37
2022/07/24 07:30:35;;;;;;;10.88;9.82;;;24.30;99.90;;;;;;4953501;28;20197;-37
2022/07/24 07:33:02;;;;;;;11.20;9.88;;;24.40;99.90;;;;;;4969705;28;20229;-36
2022/07/24 07:35:28;;;;;;;10.88;9.77;;;24.50;99.90;;;;;;4970171;28;20177;-37
2022/07/24 07:37:54;;;;;;;10.27;9.27;;;24.70;99.90;;;;;;4951245;28;20182;-38
2022/07/24 07:40:20;;;;;;;10.02;9.02;;;24.90;99.90;;;;;;4957915;28;20232;-37
2022/07/24 07:42:46;;;;;;;9.73;8.82;;;25.00;99.90;;;;;;4970298;28;20209;-36
2022/07/24 07:45:12;;;;;;;10.88;9.93;;;25.20;99.90;;;;;;4955683;28;20200;-36
2022/07/24 07:47:38;;;;;;;12.07;10.25;;;25.30;99.90;;;;;;4954275;28;20193;-36
2022/07/24 07:50:04;;;;;;;11.10;9.98;;;25.40;99.90;;;;;;4953881;29;20213;-37
2022/07/24 07:52:30;;;;;;;10.30;9.25;;;25.50;99.90;;;;;;4953904;28;20212;-36
2022/07/24 07:54:56;;;;;;;9.27;8.48;;;25.60;99.90;;;;;;4940897;29;20178;-38
2022/07/24 07:57:22;;;;;;;9.60;8.70;;;25.70;99.90;;;;;;4950360;29;20189;-36
2022/07/24 07:59:47;;;;;;;8.90;8.10;;;25.70;99.90;;;;;;4970079;28;20192;-37
2022/07/24 08:02:18;;;;;;;9.40;8.50;;;25.90;99.90;;;;;;4947877;28;20213;-40
2022/07/24 08:04:47;;;;;;;7.63;6.95;;;26.00;99.90;;;;;;4953240;29;20684;-37
2022/07/24 08:07:14;;;;;;;8.98;8.18;;;26.10;99.90;;;;;;4952994;29;20244;-36
2022/07/24 08:09:40;;;;;;;9.23;8.32;;;26.20;99.90;;;;;;4979815;28;20205;-38
2022/07/24 08:12:08;;;;;;;8.23;7.43;;;26.30;99.90;;;;;;4946387;28;20633;-36
2022/07/24 08:14:34;;;;;;;8.48;7.72;;;26.50;99.90;;;;;;4953102;28;20177;-37
2022/07/24 08:17:00;;;;;;;8.20;7.40;;;26.50;99.90;;;;;;4954168;28;20234;-38
2022/07/24 08:19:32;;;;;;;7.90;7.15;;;26.60;99.90;;;;;;4968447;28;20232;-35
2022/07/24 08:21:58;;;;;;;7.50;6.80;;;26.80;99.90;;;;;;4935726;29;20200;-36
2022/07/24 08:24:24;;;;;;;6.93;6.22;;;27.00;99.90;;;;;;4935731;29;20213;-35
2022/07/24 08:26:50;;;;;;;6.22;5.72;;;27.10;99.90;;;;;;4960692;28;20233;-35
2022/07/24 08:29:17;;;;;;;7.05;6.25;;;27.20;99.90;;;;;;4952941;28;20184;-38
2022/07/24 08:31:44;;;;;;;7.30;5.85;;;27.40;99.90;;;;;;4960872;28;20210;-37
2022/07/24 08:34:10;;;;;;;7.25;5.63;;;27.40;99.90;;;;;;4946101;28;20277;-37
2022/07/24 08:36:36;;;;;;;9.35;6.75;;;27.60;99.90;;;;;;4974174;28;20749;-39
2022/07/24 08:39:02;;;;;;;7.55;6.75;;;27.70;99.90;;;;;;4952884;28;20177;-38
2022/07/24 08:41:35;;;;;;;6.82;6.10;;;27.90;99.90;;;;;;4954776;28;20211;-37
2022/07/24 08:44:03;;;;;;;7.72;7.03;;;28.00;99.90;;;;;;4952471;29;20185;-35
2022/07/24 08:46:32;;;;;;;7.97;7.28;;;28.20;99.90;;;;;;4950062;28;20237;-35
2022/07/24 08:49:01;;;;;;;7.25;6.65;;;28.00;99.90;;;;;;4952208;29;20186;-37
2022/07/24 08:51:33;;;;;;;7.68;6.97;;;28.00;99.90;;;;;;4936535;29;20205;-36
2022/07/24 08:54:02;;;;;;;7.18;6.35;;;28.20;99.90;;;;;;4952277;29;20273;-36
2022/07/24 08:56:28;;;;;;;7.45;6.75;;;28.50;99.90;;;;;;4947050;28;20277;-36
2022/07/24 08:58:54;;;;;;;7.43;6.57;;;28.70;99.90;;;;;;4952803;29;20269;-41
2022/07/24 09:01:22;;;;;;;7.05;6.45;;;28.90;99.90;;;;;;4952098;28;20295;-39
2022/07/24 09:03:54;;;;;;;6.78;6.18;;;28.90;99.90;;;;;;4951767;28;20178;-38
2022/07/24 09:06:21;;;;;;;7.05;6.38;;;29.20;99.90;;;;;;4951203;29;20177;-37
2022/07/24 09:09:02;;;;;;;6.68;6.18;;;29.20;99.90;;;;;;4937395;29;20173;-36
2022/07/24 09:11:38;;;;;;;6.80;6.18;;;29.50;99.90;;;;;;4951920;28;20212;-36
2022/07/24 09:14:30;;;;;;;6.68;5.90;;;29.60;99.90;;;;;;4951404;29;20279;-37
2022/07/24 09:17:10;;;;;;;6.20;5.60;;;29.80;99.90;;;;;;4950852;28;20245;-36
2022/07/24 09:20:01;;;;;;;7.03;6.43;;;29.90;99.90;;;;;;4934688;29;20296;-36
2022/07/24 09:22:39;;;;;;;7.22;6.43;;;30.00;99.90;;;;;;4942456;28;20213;-36
2022/07/24 09:25:13;;;;;;;7.28;6.68;;;30.10;99.90;;;;;;4935768;29;20173;-36
2022/07/24 09:27:54;;;;;;;7.47;6.88;;;30.30;99.90;;;;;;4950879;29;20192;-36
2022/07/24 09:30:32;;;;;;;7.45;6.75;;;30.30;99.90;;;;;;4967364;28;20236;-36
2022/07/24 09:33:16;;;;;;;7.30;6.57;;;30.40;99.40;;;;;;4950490;29;20196;-36
2022/07/24 09:35:45;;;;;;;7.80;6.75;;;30.50;98.90;;;;;;4950085;29;20194;-37
2022/07/24 09:38:20;;;;;;;7.55;6.85;;;30.50;99.70;;;;;;4959404;28;20239;-36
2022/07/24 09:40:51;;;;;;;7.45;6.85;;;30.70;98.70;;;;;;4942957;29;20185;-38
2022/07/24 09:43:34;;;;;;;7.88;6.90;;;30.70;98.70;;;;;;4948926;29;20224;-36
2022/07/24 09:46:09;;;;;;;8.13;7.32;;;30.90;98.70;;;;;;4936210;29;20236;-35
2022/07/24 09:48:53;;;;;;;8.68;7.78;;;30.40;99.40;;;;;;4948051;29;20181;-36
2022/07/24 09:51:19;;;;;;;9.02;8.05;;;30.40;99.30;;;;;;4950666;28;20236;-36
2022/07/24 09:53:51;;;;;;;9.07;8.20;;;30.40;98.00;;;;;;4951972;29;20181;-35
2022/07/24 09:56:18;;;;;;;8.80;8.00;;;30.20;98.90;;;;;;4950331;28;20193;-36
2022/07/24 09:58:48;;;;;;;9.57;7.97;;;30.30;99.70;;;;;;4950945;28;20292;-35
2022/07/24 10:01:16;;;;;;;9.63;8.73;;;30.60;99.00;;;;;;4951680;28;20272;-36
2022/07/24 10:03:44;;;;;;;10.13;9.18;;;30.30;99.30;;;;;;4953094;28;20173;-36
2022/07/24 10:06:13;;;;;;;9.38;8.63;;;30.40;98.50;;;;;;4952020;29;20223;-36
2022/07/24 10:08:41;;;;;;;9.57;8.68;;;30.50;97.90;;;;;;4951057;28;20185;-36
2022/07/24 10:11:08;;;;;;;10.25;9.32;;;30.70;98.90;;;;;;4951305;28;20212;-35
2022/07/24 10:13:35;;;;;;;10.30;9.32;;;30.70;99.70;;;;;;4948261;29;20195;-36
2022/07/24 10:16:04;;;;;;;10.27;9.38;;;31.00;98.50;;;;;;4935565;29;20264;-36
2022/07/24 10:18:45;;;;;;;9.93;9.02;;;31.20;98.00;;;;;;4967492;28;20182;-37
2022/07/24 10:21:21;;;;;;;9.88;8.98;;;31.50;97.80;;;;;;4935132;29;20228;-36
2022/07/24 10:24:05;;;;;;;9.90;9.10;;;31.70;97.20;;;;;;4935465;29;20220;-37
2022/07/24 10:26:41;;;;;;;8.38;7.78;;;31.90;97.50;;;;;;4950953;29;20185;-38
2022/07/24 10:29:14;;;;;;;8.32;7.53;;;31.90;96.20;;;;;;4935248;29;20177;-36
2022/07/24 10:31:41;;;;;;;7.60;6.90;;;32.00;96.30;;;;;;4934643;29;20212;-35
2022/07/24 10:34:46;;;;;;;7.47;6.78;;;32.00;95.10;;;;;;4952227;28;20187;-37
2022/07/24 10:37:40;;;;;;;7.93;7.25;;;32.00;95.20;;;;;;4963409;28;20212;-36
2022/07/24 10:40:28;;;;;;;7.97;7.28;;;32.00;94.60;;;;;;4931118;29;20217;-38
2022/07/24 10:43:14;;;;;;;8.32;7.43;;;32.00;95.30;;;;;;4938242;29;20216;-36
2022/07/24 10:45:58;;;;;;;7.10;6.50;;;32.10;94.10;;;;;;4951112;29;20197;-36
2022/07/24 10:48:48;;;;;;;7.05;6.55;;;31.70;92.60;;;;;;4951584;28;20191;-37
2022/07/24 10:51:18;;;;;;;10.82;6.68;;;31.70;93.30;;;;;;4950422;28;20213;-37
2022/07/24 10:53:49;;;;;;;7.35;6.80;;;31.50;94.00;;;;;;4950894;29;20182;-36
2022/07/24 10:56:22;;;;;;;7.28;6.57;;;31.40;93.60;;;;;;4933833;29;20182;-35
2022/07/24 10:59:06;;;;;;;7.68;6.97;;;31.40;93.90;;;;;;4933409;29;20178;-35
2022/07/24 11:01:38;;;;;;;6.97;6.38;;;31.80;94.00;;;;;;4935702;29;20217;-35
2022/07/24 11:04:19;;;;;;;7.43;6.72;;;31.90;93.90;;;;;;4950831;28;20185;-35
2022/07/24 11:06:59;;;;;;;6.80;6.20;;;31.90;93.50;;;;;;4950531;28;20189;-35
2022/07/24 11:09:27;;;;;;;6.75;6.25;;;31.70;92.90;;;;;;4951099;29;20181;-37
2022/07/24 11:11:56;;;;;;;6.70;5.90;;;31.80;92.10;;;;;;4951292;28;20292;-37
2022/07/24 11:14:37;;;;;;;6.65;5.88;;;32.00;91.90;;;;;;4950793;29;20248;-36
2022/07/24 11:17:40;;;;;;;6.32;5.82;;;32.00;91.30;;;;;;4935322;29;20177;-35
2022/07/24 11:20:34;;;;;;;6.72;6.13;;;31.80;91.10;;;;;;4952804;28;20181;-35
2022/07/24 11:22:59;;;;;;;7.53;6.85;;;31.50;91.70;;;;;;4954677;28;20257;-35
2022/07/24 11:25:27;;;;;;;7.30;6.70;;;31.60;91.70;;;;;;4954232;29;20617;-36
2022/07/24 11:28:11;;;;;;;7.00;6.13;;;31.80;91.30;;;;;;4938494;29;20186;-36
2022/07/24 11:30:42;;;;;;;7.63;6.97;;;32.10;91.30;;;;;;4954644;29;20205;-35
2022/07/24 11:33:10;;;;;;;6.93;6.32;;;32.40;90.50;;;;;;4954805;29;20189;-35
2022/07/24 11:35:37;;;;;;;7.13;6.53;;;32.30;91.20;;;;;;4970433;28;20188;-35
2022/07/24 11:38:05;;;;;;;7.00;6.22;;;32.40;91.80;;;;;;4954386;29;20220;-35
2022/07/24 11:40:34;;;;;;;7.13;6.53;;;32.60;91.30;;;;;;4937700;29;20196;-36
2022/07/24 11:43:03;;;;;;;7.30;6.70;;;32.50;91.00;;;;;;4938253;29;20220;-37
2022/07/24 11:45:29;;;;;;;7.70;6.82;;;32.20;91.10;;;;;;4954276;28;20187;-35
2022/07/24 11:47:55;;;;;;;7.63;6.60;;;32.20;92.00;;;;;;4938358;29;20177;-36
2022/07/24 11:50:23;;;;;;;7.40;6.70;;;32.40;90.90;;;;;;4954160;29;20301;-37
2022/07/24 11:52:49;;;;;;;7.32;6.63;;;32.80;91.30;;;;;;4938233;29;20237;-36
2022/07/24 11:55:19;;;;;;;6.97;6.32;;;33.00;90.80;;;;;;4937630;29;20178;-36
2022/07/24 11:57:50;;;;;;;7.03;6.43;;;33.10;90.10;;;;;;4953928;29;20236;-36
2022/07/24 12:00:23;;;;;;;7.15;6.55;;;33.30;90.70;;;;;;4938071;29;20654;-35
2022/07/24 12:02:52;;;;;;;6.88;6.38;;;33.10;88.50;;;;;;4953562;28;20228;-36
2022/07/24 12:05:37;;;;;;;6.88;6.22;;;33.40;90.30;;;;;;4937760;29;20185;-35
2022/07/24 12:08:15;;;;;;;6.53;5.97;;;33.20;90.10;;;;;;4954048;29;20193;-35
2022/07/24 12:10:41;;;;;;;7.20;6.50;;;33.30;88.20;;;;;;4953696;28;20209;-36
2022/07/24 12:13:07;;;;;;;7.30;6.70;;;33.20;90.00;;;;;;4956207;28;20220;-35
2022/07/24 12:15:38;;;;;;;6.78;6.18;;;33.30;89.90;;;;;;4956939;29;20233;-36
2022/07/24 12:18:06;;;;;;;6.80;6.20;;;33.60;87.80;;;;;;4956515;29;20196;-37
2022/07/24 12:20:40;;;;;;;6.97;6.35;;;34.00;88.30;;;;;;4972449;28;20193;-35
2022/07/24 12:23:09;;;;;;;6.80;6.20;;;34.20;87.20;;;;;;4956278;29;20189;-35
2022/07/24 12:25:36;;;;;;;7.10;6.40;;;33.90;85.20;;;;;;4937734;29;20192;-36
2022/07/24 12:28:13;;;;;;;6.88;6.30;;;33.60;83.30;;;;;;4953826;28;20177;-36
2022/07/24 12:30:41;;;;;;;7.78;6.07;;;33.50;87.10;;;;;;4952966;28;20213;-38
2022/07/24 12:33:18;;;;;;;7.13;6.53;;;33.70;86.40;;;;;;4953131;29;20185;-36
2022/07/24 12:36:08;;;;;;;6.38;5.88;;;33.80;85.20;;;;;;4953402;29;20181;-39
2022/07/24 12:38:35;;;;;;;7.18;6.47;;;33.70;86.30;;;;;;4953278;29;20209;-36
2022/07/24 12:41:06;;;;;;;7.05;6.38;;;33.70;87.00;;;;;;4968826;28;20216;-36
2022/07/24 12:43:33;;;;;;;6.82;6.22;;;33.80;85.50;;;;;;4937382;29;20197;-37